createdAt,value
2022-12-17T00:02:34.227Z,27.42
2022-12-17T00:05:19.535Z,22.80
2022-12-17T00:08:04.194Z,23.60
2022-12-17T00:10:48.977Z,27.48
2022-12-17T00:13:40.968Z,101.38
2022-12-17T00:16:26.295Z,95.50
2022-12-17T00:19:11.405Z,31.42
2022-12-17T00:21:56.214Z,27.35
2022-12-17T00:24:41.374Z,23.20
2022-12-17T00:27:26.207Z,24.45
2022-12-17T00:30:10.909Z,35.08
2022-12-17T00:32:55.845Z,23.30
2022-12-17T00:35:40.628Z,26.63
2022-12-17T00:38:25.941Z,22.10
2022-12-17T00:41:11.831Z,22.25
2022-12-17T00:43:56.581Z,21.80
2022-12-17T00:46:41.513Z,25.00
2022-12-17T00:49:26.464Z,21.55
2022-12-17T00:52:27.975Z,24.55
2022-12-17T00:55:13.007Z,21.50
2022-12-17T00:57:57.781Z,24.65
2022-12-17T01:00:42.660Z,22.85
2022-12-17T01:03:30.406Z,24.58
2022-12-17T01:06:15.612Z,22.35
2022-12-17T01:09:00.378Z,24.75
2022-12-17T01:11:45.252Z,25.08
2022-12-17T01:14:29.927Z,24.65
2022-12-17T01:17:14.729Z,28.15
2022-12-17T01:19:59.564Z,24.77
2022-12-17T01:22:44.256Z,25.80
2022-12-17T01:25:29.155Z,21.48
2022-12-17T01:28:13.796Z,25.13
2022-12-17T01:30:58.692Z,27.80
2022-12-17T01:33:43.845Z,25.85
2022-12-17T01:36:28.664Z,29.98
2022-12-17T01:39:13.424Z,21.70
2022-12-17T01:41:58.132Z,27.88
2022-12-17T01:44:58.009Z,23.75
2022-12-17T01:47:52.417Z,23.13
2022-12-17T01:50:39.029Z,26.52
2022-12-17T01:53:26.346Z,26.13
2022-12-17T01:56:12.652Z,24.35
2022-12-17T01:58:59.476Z,27.10
2022-12-17T02:01:45.066Z,23.75
2022-12-17T02:04:30.466Z,28.00
2022-12-17T02:07:30.451Z,28.17
2022-12-17T02:10:18.443Z,26.67
2022-12-17T02:13:09.926Z,21.33
2022-12-17T02:16:11.795Z,22.15
2022-12-17T02:21:51.877Z,24.92
2022-12-17T02:25:11.737Z,25.52
2022-12-17T02:27:56.904Z,26.27
2022-12-17T02:30:42.132Z,25.23
2022-12-17T02:33:28.051Z,24.80
2022-12-17T02:36:18.434Z,24.77
2022-12-17T02:39:03.229Z,28.05
2022-12-17T02:41:51.085Z,29.80
2022-12-17T02:44:38.942Z,24.45
2022-12-17T02:47:27.129Z,24.13
2022-12-17T02:50:12.935Z,27.25
2022-12-17T02:53:02.774Z,25.35
2022-12-17T02:55:47.463Z,25.77
2022-12-17T02:58:32.725Z,24.70
2022-12-17T03:01:17.701Z,27.90
2022-12-17T03:04:02.678Z,21.55
2022-12-17T03:06:47.364Z,25.05
2022-12-17T03:09:32.594Z,22.42
2022-12-17T03:12:17.435Z,23.25
2022-12-17T03:15:02.153Z,26.35
2022-12-17T03:17:48.346Z,27.60
2022-12-17T03:20:33.693Z,29.02
2022-12-17T03:23:24.064Z,25.95
2022-12-17T03:26:09.251Z,24.77
2022-12-17T03:28:54.062Z,26.70
2022-12-17T03:31:39.253Z,28.92
2022-12-17T03:34:24.020Z,26.85
2022-12-17T03:37:09.361Z,25.65
2022-12-17T03:39:54.657Z,27.55
2022-12-17T03:42:39.380Z,24.88
2022-12-17T03:45:24.688Z,27.95
2022-12-17T03:48:09.504Z,26.45
2022-12-17T03:50:54.296Z,30.20
2022-12-17T03:53:39.263Z,29.55
2022-12-17T03:56:24.203Z,29.05
2022-12-17T03:59:13.538Z,28.58
2022-12-17T04:01:58.459Z,29.73
2022-12-17T04:04:43.467Z,31.95
2022-12-17T04:07:28.219Z,26.52
2022-12-17T04:10:12.908Z,31.30
2022-12-17T04:12:57.655Z,28.38
2022-12-17T04:15:42.375Z,29.48
2022-12-17T04:18:27.476Z,30.13
2022-12-17T04:21:12.254Z,32.22
2022-12-17T04:23:57.078Z,30.60
2022-12-17T04:26:41.956Z,27.83
2022-12-17T04:29:26.736Z,26.35
2022-12-17T04:32:11.738Z,30.00
2022-12-17T04:34:56.534Z,29.08
2022-12-17T04:37:41.307Z,30.38
2022-12-17T04:40:28.006Z,25.83
2022-12-17T04:43:12.703Z,31.63
2022-12-17T04:45:57.427Z,30.67
2022-12-17T04:48:42.199Z,27.27
2022-12-17T04:51:27.591Z,24.98
2022-12-17T04:54:12.216Z,31.20
2022-12-17T04:56:56.963Z,33.20
2022-12-17T04:59:41.774Z,30.38
2022-12-17T05:02:26.600Z,30.17
2022-12-17T05:05:11.672Z,31.95
2022-12-17T05:07:56.426Z,27.90
2022-12-17T05:10:41.076Z,27.13
2022-12-17T05:13:28.263Z,34.63
2022-12-17T05:16:16.653Z,29.52
2022-12-17T05:19:01.407Z,27.05
2022-12-17T05:21:46.630Z,33.10
2022-12-17T05:24:31.403Z,26.42
2022-12-17T05:27:16.037Z,26.95
2022-12-17T05:30:00.910Z,24.55
2022-12-17T05:32:45.554Z,31.90
2022-12-17T05:35:30.324Z,20.58
2022-12-17T05:38:22.275Z,21.98
2022-12-17T05:41:07.201Z,22.95
2022-12-17T05:43:52.575Z,26.85
2022-12-17T05:46:37.847Z,22.05
2022-12-17T05:49:22.745Z,35.17
2022-12-17T05:52:07.538Z,28.50
2022-12-17T05:54:52.226Z,31.77
2022-12-17T05:57:56.139Z,32.92
2022-12-17T06:00:41.341Z,28.23
2022-12-17T06:03:27.774Z,29.00
2022-12-17T06:06:15.465Z,31.00
2022-12-17T06:09:00.128Z,33.15
2022-12-17T06:11:45.929Z,34.13
2022-12-17T06:14:31.289Z,29.13
2022-12-17T06:17:36.004Z,63.65
2022-12-17T06:20:21.223Z,25.17
2022-12-17T06:23:06.081Z,31.20
2022-12-17T06:25:50.929Z,29.63
2022-12-17T06:28:35.696Z,100.80
2022-12-17T06:31:20.551Z,33.97
2022-12-17T06:34:05.452Z,31.58
2022-12-17T06:36:50.311Z,34.38
2022-12-17T06:39:35.492Z,76.05
2022-12-17T06:42:20.385Z,49.97
2022-12-17T06:45:05.498Z,37.03
2022-12-17T06:47:50.306Z,36.42
2022-12-17T06:50:35.211Z,25.42
2022-12-17T06:53:21.615Z,49.58
2022-12-17T06:56:06.295Z,34.47
2022-12-17T06:58:51.651Z,30.73
2022-12-17T07:01:37.068Z,35.60
2022-12-17T07:04:22.661Z,54.95
2022-12-17T07:07:08.016Z,73.40
2022-12-17T07:09:52.749Z,39.03
2022-12-17T07:12:37.976Z,61.88
2022-12-17T07:15:23.143Z,24.23
2022-12-17T07:18:20.186Z,45.67
2022-12-17T07:21:05.892Z,22.63
2022-12-17T07:23:50.773Z,36.70
2022-12-17T07:26:35.931Z,24.80
2022-12-17T07:29:21.398Z,22.08
2022-12-17T07:32:06.712Z,40.50
2022-12-17T07:34:51.612Z,81.80
2022-12-17T07:37:36.825Z,29.60
2022-12-17T07:40:22.483Z,19.30
2022-12-17T07:43:07.230Z,30.73
2022-12-17T07:45:52.073Z,20.02
2022-12-17T07:48:37.170Z,41.78
2022-12-17T07:51:22.367Z,53.28
2022-12-17T07:54:07.692Z,32.25
2022-12-17T07:56:58.121Z,31.70
2022-12-17T07:59:43.082Z,21.15
2022-12-17T08:02:29.402Z,21.35
2022-12-17T08:05:14.429Z,20.55
2022-12-17T08:07:59.143Z,28.15
2022-12-17T08:10:43.939Z,27.45
2022-12-17T08:13:28.594Z,25.15
2022-12-17T08:16:13.504Z,24.45
2022-12-17T08:18:58.849Z,41.05
2022-12-17T08:21:43.587Z,81.53
2022-12-17T08:24:28.443Z,35.83
2022-12-17T08:27:13.283Z,24.30
2022-12-17T08:29:58.161Z,39.97
2022-12-17T08:32:43.372Z,19.45
2022-12-17T08:35:28.658Z,20.00
2022-12-17T08:38:23.539Z,43.47
2022-12-17T08:41:08.231Z,23.88
2022-12-17T08:43:53.518Z,27.17
2022-12-17T08:46:38.862Z,29.33
2022-12-17T08:49:23.628Z,23.30
2022-12-17T08:52:08.486Z,29.80
2022-12-17T08:54:53.202Z,34.45
2022-12-17T08:57:38.013Z,17.58
2022-12-17T09:00:23.325Z,29.88
2022-12-17T09:03:08.167Z,20.13
2022-12-17T09:05:53.237Z,24.73
2022-12-17T09:08:37.959Z,18.45
2022-12-17T09:11:23.366Z,19.75
2022-12-17T09:14:08.143Z,16.40
2022-12-17T09:16:53.024Z,20.10
2022-12-17T09:19:37.783Z,26.02
2022-12-17T09:22:22.631Z,30.75
2022-12-17T09:25:07.706Z,22.20
2022-12-17T09:27:52.553Z,23.02
2022-12-17T09:30:37.690Z,25.23
2022-12-17T09:33:22.794Z,19.00
2022-12-17T09:36:08.378Z,25.65
2022-12-17T09:38:53.060Z,19.52
2022-12-17T09:41:44.966Z,18.67
2022-12-17T09:47:54.513Z,32.33
2022-12-17T09:50:40.008Z,21.17
2022-12-17T09:53:39.915Z,20.70
2022-12-17T09:56:28.295Z,24.80
2022-12-17T09:59:13.577Z,23.13
2022-12-17T10:01:58.991Z,24.40
2022-12-17T10:05:03.536Z,16.45
2022-12-17T10:07:55.037Z,37.47
2022-12-17T10:10:45.707Z,27.15
2022-12-17T10:13:33.579Z,34.40
2022-12-17T10:16:18.860Z,25.40
2022-12-17T10:19:05.287Z,26.52
2022-12-17T10:21:52.406Z,28.45
2022-12-17T10:24:37.227Z,20.88
2022-12-17T10:27:30.191Z,24.85
2022-12-17T10:30:14.959Z,21.35
2022-12-17T10:33:10.746Z,24.40
2022-12-17T10:35:56.657Z,24.52
2022-12-17T10:38:49.989Z,27.48
2022-12-17T10:41:45.038Z,23.52
2022-12-17T10:44:52.148Z,28.67
2022-12-17T10:47:42.531Z,33.53
2022-12-17T10:50:40.507Z,40.10
2022-12-17T10:53:38.704Z,28.10
2022-12-17T10:56:24.271Z,31.77
2022-12-17T10:59:11.798Z,30.75
2022-12-17T11:02:00.873Z,26.50
2022-12-17T11:04:56.663Z,35.78
2022-12-17T11:07:54.569Z,23.65
2022-12-17T11:10:44.354Z,31.38
2022-12-17T11:13:58.527Z,30.77
2022-12-17T11:16:52.447Z,34.42
2022-12-17T11:19:54.297Z,30.23
2022-12-17T11:23:04.150Z,27.98
2022-12-17T11:26:05.152Z,32.70
2022-12-17T11:28:54.659Z,32.90
2022-12-17T11:31:46.083Z,44.88
2022-12-17T11:34:50.921Z,31.55
2022-12-17T11:37:39.651Z,42.63
2022-12-17T11:40:54.467Z,40.20
2022-12-17T11:43:58.272Z,33.05
2022-12-17T11:46:52.271Z,34.20
2022-12-17T11:50:23.704Z,34.42
2022-12-17T11:53:45.855Z,34.67
2022-12-17T12:00:03.655Z,32.58
2022-12-17T12:03:07.281Z,36.60
2022-12-17T12:06:16.282Z,33.28
2022-12-17T12:09:13.669Z,36.42
2022-12-17T12:12:11.675Z,37.05
2022-12-17T12:15:21.640Z,32.50
2022-12-17T12:18:20.833Z,37.42
2022-12-17T12:21:08.678Z,39.80
2022-12-17T12:24:05.699Z,37.17
2022-12-17T12:27:23.355Z,39.95
2022-12-17T12:30:30.075Z,36.30
2022-12-17T12:33:30.195Z,35.58
2022-12-17T12:36:19.770Z,36.60
2022-12-17T12:39:08.625Z,35.65
2022-12-17T12:42:00.904Z,38.58
2022-12-17T12:45:07.589Z,36.65
2022-12-17T12:48:20.460Z,38.60
2022-12-17T12:51:40.851Z,37.85
2022-12-17T12:54:50.249Z,37.72
2022-12-17T12:57:50.728Z,36.00
2022-12-17T13:00:44.286Z,39.00
2022-12-17T13:03:48.207Z,40.33
2022-12-17T13:06:37.435Z,36.72
2022-12-17T13:09:17.478Z,36.55
2022-12-17T13:11:46.732Z,37.88
2022-12-17T13:14:18.855Z,38.95
2022-12-17T13:16:45.225Z,40.33
2022-12-17T13:19:40.892Z,37.33
2022-12-17T13:22:23.447Z,43.42
2022-12-17T13:24:54.031Z,37.78
2022-12-17T13:27:35.791Z,37.50
2022-12-17T13:30:30.026Z,46.85
2022-12-17T13:33:20.834Z,37.38
2022-12-17T13:36:02.483Z,41.70
2022-12-17T13:41:19.210Z,28.13
2022-12-17T13:43:57.772Z,34.90
2022-12-17T13:46:46.954Z,37.42
2022-12-17T13:49:20.892Z,34.22
2022-12-17T13:51:47.919Z,29.48
2022-12-17T13:54:19.335Z,35.65
2022-12-17T13:56:46.183Z,36.08
2022-12-17T13:59:21.473Z,36.80
2022-12-17T14:01:53.297Z,34.72
2022-12-17T14:04:26.410Z,40.53
2022-12-17T14:06:55.542Z,36.15
2022-12-17T14:09:26.420Z,37.92
2022-12-17T14:12:11.790Z,40.28
2022-12-17T14:14:42.900Z,30.23
2022-12-17T14:17:19.088Z,34.15
2022-12-17T14:19:46.623Z,25.48
2022-12-17T14:22:23.017Z,34.80
2022-12-17T14:24:49.566Z,34.85
2022-12-17T14:27:25.920Z,30.73
2022-12-17T14:29:52.437Z,34.28
2022-12-17T14:32:26.638Z,36.42
2022-12-17T14:34:58.856Z,33.17
2022-12-17T14:37:27.908Z,35.38
2022-12-17T14:40:00.474Z,59.20
2022-12-17T14:42:29.200Z,40.33
2022-12-17T14:44:57.575Z,36.60
2022-12-17T14:47:32.284Z,50.17
2022-12-17T14:50:13.965Z,48.65
2022-12-17T14:55:31.655Z,38.00
2022-12-17T14:58:13.680Z,40.22
2022-12-17T15:01:03.516Z,42.15
2022-12-17T15:03:34.063Z,55.72
2022-12-17T15:06:06.904Z,57.13
2022-12-17T15:08:36.084Z,42.85
2022-12-17T15:11:03.525Z,41.60
2022-12-17T15:13:29.939Z,48.42
2022-12-17T15:15:57.581Z,49.92
2022-12-17T15:18:24.240Z,47.00
2022-12-17T15:20:50.832Z,49.33
2022-12-17T15:23:19.800Z,46.28
2022-12-17T15:25:48.493Z,48.83
2022-12-17T15:28:15.991Z,49.47
2022-12-17T15:30:42.608Z,45.17
2022-12-17T15:33:10.263Z,48.65
2022-12-17T15:35:37.629Z,49.72
2022-12-17T15:38:05.759Z,49.15
2022-12-17T15:40:32.951Z,52.22
2022-12-17T15:43:11.328Z,45.33
2022-12-17T15:45:46.290Z,46.05
2022-12-17T15:48:15.597Z,52.97
2022-12-17T15:50:42.008Z,50.70
2022-12-17T15:53:09.398Z,55.00
2022-12-17T15:55:37.137Z,53.78
2022-12-17T15:58:04.217Z,58.58
2022-12-17T16:00:30.827Z,57.78
2022-12-17T16:02:57.599Z,51.03
2022-12-17T16:05:24.292Z,57.28
2022-12-17T16:07:51.495Z,59.05
2022-12-17T16:10:18.882Z,58.03
2022-12-17T16:12:45.544Z,61.53
2022-12-17T16:15:13.313Z,60.20
2022-12-17T16:17:39.817Z,54.83
2022-12-17T16:20:07.286Z,73.13
2022-12-17T16:22:33.830Z,64.15
2022-12-17T16:25:00.308Z,64.88
2022-12-17T16:27:26.731Z,70.75
2022-12-17T16:29:53.156Z,61.38
2022-12-17T16:32:19.958Z,66.85
2022-12-17T16:34:46.811Z,60.75
2022-12-17T16:37:13.231Z,64.25
2022-12-17T16:39:39.660Z,58.20
2022-12-17T16:42:06.227Z,57.30
2022-12-17T16:44:32.707Z,67.05
2022-12-17T16:46:59.825Z,57.30
2022-12-17T16:49:26.565Z,61.92
2022-12-17T16:51:54.823Z,61.20
2022-12-17T16:54:24.292Z,60.22
2022-12-17T16:56:51.037Z,58.33
2022-12-17T16:59:18.707Z,60.75
2022-12-17T17:01:47.714Z,54.20
2022-12-17T17:04:16.394Z,55.30
2022-12-17T17:06:48.560Z,57.38
2022-12-17T17:09:15.912Z,54.45
2022-12-17T17:11:46.888Z,55.42
2022-12-17T17:14:16.494Z,56.83
2022-12-17T17:16:42.894Z,64.47
2022-12-17T17:19:09.350Z,55.20
2022-12-17T17:21:38.681Z,52.88
2022-12-17T17:24:20.332Z,56.40
2022-12-17T17:26:48.703Z,54.72
2022-12-17T17:29:15.150Z,52.45
2022-12-17T17:34:28.010Z,57.88
2022-12-17T17:36:54.422Z,69.57
2022-12-17T17:39:21.055Z,58.78
2022-12-17T17:41:47.481Z,56.63
2022-12-17T17:44:14.186Z,64.65
2022-12-17T17:46:41.024Z,65.90
2022-12-17T17:49:08.817Z,64.60
2022-12-17T17:54:28.169Z,60.33
2022-12-17T17:56:54.596Z,82.35
2022-12-17T17:59:24.206Z,69.78
2022-12-17T18:01:55.765Z,65.60
2022-12-17T18:04:24.249Z,70.97
2022-12-17T18:07:23.241Z,80.35
2022-12-17T18:09:37.167Z,81.78
2022-12-17T18:12:23.705Z,85.55
2022-12-17T18:15:13.155Z,75.82
2022-12-17T18:17:36.829Z,62.22
2022-12-17T18:20:03.774Z,69.28
2022-12-17T18:22:30.189Z,77.40
2022-12-17T18:24:56.579Z,75.25
2022-12-17T18:27:22.989Z,69.80
2022-12-17T18:29:49.436Z,71.47
2022-12-17T18:32:15.851Z,75.85
2022-12-17T18:34:42.656Z,91.07
2022-12-17T18:37:09.127Z,77.43
2022-12-17T18:39:35.647Z,81.20
2022-12-17T18:42:20.427Z,81.65
2022-12-17T18:44:46.805Z,81.47
2022-12-17T18:47:13.320Z,84.78
2022-12-17T18:49:39.795Z,94.82
2022-12-17T18:52:09.409Z,88.63
2022-12-17T18:54:39.635Z,86.07
2022-12-17T18:57:06.029Z,73.18
2022-12-17T18:59:32.528Z,67.10
2022-12-17T19:01:59.052Z,67.05
2022-12-17T19:04:26.312Z,72.50
2022-12-17T19:06:53.857Z,68.18
2022-12-17T19:09:29.921Z,82.93
2022-12-17T19:11:57.053Z,75.15
2022-12-17T19:14:25.095Z,71.22
2022-12-17T19:16:54.005Z,70.38
2022-12-17T19:19:21.610Z,70.65
2022-12-17T19:21:48.789Z,65.85
2022-12-17T19:24:17.144Z,54.00
2022-12-17T19:26:44.479Z,56.97
2022-12-17T19:29:12.821Z,57.90
2022-12-17T19:31:39.803Z,50.88
2022-12-17T19:34:07.809Z,50.95
2022-12-17T19:36:36.424Z,57.47
2022-12-17T19:39:06.002Z,55.25
2022-12-17T19:41:33.454Z,57.17
2022-12-17T19:44:05.518Z,62.55
2022-12-17T19:46:33.855Z,69.82
2022-12-17T19:49:01.073Z,59.50
2022-12-17T19:51:29.399Z,61.80
2022-12-17T19:53:56.228Z,60.90
2022-12-17T19:56:28.840Z,54.92
2022-12-17T19:59:01.985Z,63.30
2022-12-17T20:01:34.335Z,53.85
2022-12-17T20:04:00.843Z,60.90
2022-12-17T20:06:29.331Z,49.28
2022-12-17T20:08:57.463Z,54.05
2022-12-17T20:11:32.952Z,56.55
2022-12-17T20:14:07.330Z,59.20
2022-12-17T20:16:38.908Z,63.35
2022-12-17T20:19:08.050Z,64.35
2022-12-17T20:21:34.500Z,73.85
2022-12-17T20:24:00.927Z,68.05
2022-12-17T20:26:27.372Z,60.45
2022-12-17T20:28:55.387Z,62.45
2022-12-17T20:31:21.950Z,55.25
2022-12-17T20:33:48.582Z,68.15
2022-12-17T20:36:17.560Z,118.88
2022-12-17T20:38:44.262Z,92.72
2022-12-17T20:41:11.724Z,62.15
2022-12-17T20:43:38.726Z,75.10
2022-12-17T20:46:06.528Z,60.05
2022-12-17T20:48:33.450Z,49.53
2022-12-17T20:51:05.095Z,127.25
2022-12-17T20:53:31.605Z,141.90
2022-12-17T20:56:07.232Z,45.95
2022-12-17T20:58:33.944Z,53.75
2022-12-17T21:01:10.111Z,45.78
2022-12-17T21:03:36.911Z,35.22
2022-12-17T21:06:08.962Z,45.58
2022-12-17T21:08:36.099Z,42.38
2022-12-17T21:11:02.846Z,44.72
2022-12-17T21:13:30.000Z,52.03
2022-12-17T21:15:59.113Z,43.55
2022-12-17T21:18:27.379Z,42.67
2022-12-17T21:21:05.431Z,33.13
2022-12-17T21:23:33.591Z,45.80
2022-12-17T21:26:03.133Z,46.08
2022-12-17T21:28:36.373Z,51.55
2022-12-17T21:31:03.742Z,41.90
2022-12-17T21:33:31.279Z,52.40
2022-12-17T21:36:07.559Z,44.08
2022-12-17T21:38:34.861Z,45.65
2022-12-17T21:41:07.586Z,92.13
2022-12-17T21:43:36.793Z,52.33
2022-12-17T21:46:04.392Z,96.07
2022-12-17T21:48:33.409Z,82.18
2022-12-17T21:51:06.250Z,147.07
2022-12-17T21:53:33.632Z,92.53
2022-12-17T21:56:08.422Z,175.93
2022-12-17T21:58:35.421Z,90.57
2022-12-17T22:01:25.040Z,73.57
2022-12-17T22:03:54.449Z,91.95
2022-12-17T22:06:28.429Z,43.42
2022-12-17T22:09:01.593Z,92.10
2022-12-17T22:11:33.054Z,58.83
2022-12-17T22:14:07.286Z,139.38
2022-12-17T22:16:49.822Z,46.72
2022-12-17T22:19:18.019Z,63.53
2022-12-17T22:21:49.805Z,90.47
2022-12-17T22:24:22.568Z,92.72
2022-12-17T22:26:49.155Z,45.40
2022-12-17T22:29:36.241Z,90.65
2022-12-17T22:32:22.144Z,128.60
2022-12-17T22:36:04.617Z,157.80
2022-12-17T22:39:41.997Z,123.88
2022-12-17T22:42:23.049Z,109.18
2022-12-17T22:44:40.881Z,201.60
2022-12-17T22:46:17.183Z,187.38
2022-12-17T22:48:43.906Z,213.70
2022-12-17T22:51:13.746Z,112.03
2022-12-17T22:53:46.469Z,60.20
2022-12-17T22:56:36.825Z,71.97
2022-12-17T22:58:59.492Z,89.82
2022-12-17T23:01:26.096Z,60.92
2022-12-17T23:04:00.297Z,121.45
2022-12-17T23:06:29.866Z,101.20
2022-12-17T23:08:56.346Z,77.75
2022-12-17T23:11:24.908Z,80.18
2022-12-17T23:13:52.205Z,56.80
2022-12-17T23:16:18.894Z,42.63
2022-12-17T23:18:46.891Z,48.63
2022-12-17T23:21:18.320Z,42.28
2022-12-17T23:23:44.800Z,44.28
2022-12-17T23:26:20.507Z,46.08
2022-12-17T23:28:47.031Z,46.05
2022-12-17T23:31:16.512Z,80.18
2022-12-17T23:33:43.946Z,105.82
2022-12-17T23:36:13.202Z,98.60
2022-12-17T23:38:40.161Z,173.77
2022-12-17T23:41:09.402Z,141.88
2022-12-17T23:43:37.155Z,104.05
2022-12-17T23:46:05.032Z,177.95
2022-12-17T23:48:34.404Z,114.75
2022-12-17T23:51:01.900Z,148.23
2022-12-17T23:53:30.000Z,98.00
2022-12-17T23:55:56.649Z,83.60
2022-12-17T23:58:23.082Z,97.70
